sensor_id;sensor_type;location;lat;lon;timestamp;pressure;altitude;pressure_sealevel;temperature;humidity
70046;BME280;57385;41.832;23.494;2022-07-03T06:27:07;91516.81;;;22.12;61.43
70046;BME280;57385;41.832;23.494;2022-07-03T06:27:26;91496.66;;;21.94;61.30
70046;BME280;57385;41.832;23.494;2022-07-03T06:27:46;91508.09;;;21.98;61.57
70046;BME280;57385;41.832;23.494;2022-07-03T06:28:05;91508.31;;;22.02;61.75
70046;BME280;57385;41.832;23.494;2022-07-03T06:28:25;91510.63;;;22.03;61.67
70046;BME280;57385;41.832;23.494;2022-07-03T06:28:45;91513.25;;;22.03;61.77
70046;BME280;57385;41.832;23.494;2022-07-03T06:29:04;91526.56;;;22.07;61.68
70046;BME280;57385;41.832;23.494;2022-07-03T06:29:24;91525.75;;;22.06;61.68
70046;BME280;57385;41.832;23.494;2022-07-03T06:29:43;91525.25;;;22.04;61.35
70046;BME280;57385;41.832;23.494;2022-07-03T06:30:03;91525.25;;;22.04;61.55
70046;BME280;57385;41.832;23.494;2022-07-03T06:30:23;91510.97;;;21.97;61.58
70046;BME280;57385;41.832;23.494;2022-07-03T06:30:42;91519.03;;;22.00;61.26
70046;BME280;57385;41.832;23.494;2022-07-03T06:31:02;91504.25;;;21.91;61.29
70046;BME280;57385;41.832;23.494;2022-07-03T06:31:21;91525.25;;;22.04;61.57
70046;BME280;57385;41.832;23.494;2022-07-03T06:31:41;91497.75;;;21.88;61.47
70046;BME280;57385;41.832;23.494;2022-07-03T06:32:00;91515.72;;;21.95;61.68
70046;BME280;57385;41.832;23.494;2022-07-03T06:32:20;91528.13;;;22.03;61.36
70046;BME280;57385;41.832;23.494;2022-07-03T06:32:39;91514.69;;;21.91;61.50
70046;BME280;57385;41.832;23.494;2022-07-03T06:32:59;91511.31;;;21.90;61.43
70046;BME280;57385;41.832;23.494;2022-07-03T06:33:18;91523.25;;;21.96;61.29
70046;BME280;57385;41.832;23.494;2022-07-03T06:33:38;91513.44;;;21.88;61.51
70046;BME280;57385;41.832;23.494;2022-07-03T06:33:58;91526.09;;;22.00;61.79
70046;BME280;57385;41.832;23.494;2022-07-03T06:34:17;91505.38;;;21.84;61.77
70046;BME280;57385;41.832;23.494;2022-07-03T06:34:36;91501.44;;;21.87;61.85
70046;BME280;57385;41.832;23.494;2022-07-03T06:34:56;91508.75;;;21.85;61.87
70046;BME280;57385;41.832;23.494;2022-07-03T06:35:16;91502.00;;;21.84;61.04
70046;BME280;57385;41.832;23.494;2022-07-03T06:35:35;91493.69;;;21.77;61.37
70046;BME280;57385;41.832;23.494;2022-07-03T06:35:55;91493.41;;;21.78;61.63
70046;BME280;57385;41.832;23.494;2022-07-03T06:36:14;91497.53;;;21.84;61.38
70046;BME280;57385;41.832;23.494;2022-07-03T06:36:34;91503.25;;;21.86;61.18
70046;BME280;57385;41.832;23.494;2022-07-03T06:36:53;91497.63;;;21.79;61.02
70046;BME280;57385;41.832;23.494;2022-07-03T06:37:13;91505.59;;;21.88;61.35
70046;BME280;57385;41.832;23.494;2022-07-03T06:37:32;91490.78;;;21.83;60.89
70046;BME280;57385;41.832;23.494;2022-07-03T06:37:51;91488.19;;;21.78;60.78
70046;BME280;57385;41.832;23.494;2022-07-03T06:38:11;91523.47;;;22.00;60.41
70046;BME280;57385;41.832;23.494;2022-07-03T06:38:30;91503.25;;;21.86;60.68
70046;BME280;57385;41.832;23.494;2022-07-03T06:38:50;91502.97;;;21.88;60.64
70046;BME280;57385;41.832;23.494;2022-07-03T06:39:09;91501.22;;;21.83;60.70
70046;BME280;57385;41.832;23.494;2022-07-03T06:39:29;91503.47;;;21.90;60.80
70046;BME280;57385;41.832;23.494;2022-07-03T06:39:48;91525.31;;;21.99;60.58
70046;BME280;57385;41.832;23.494;2022-07-03T06:40:08;91514.66;;;21.96;61.12
70046;BME280;57385;41.832;23.494;2022-07-03T06:40:28;91509.72;;;21.94;60.23
70046;BME280;57385;41.832;23.494;2022-07-03T06:40:47;91501.91;;;21.89;60.72
70046;BME280;57385;41.832;23.494;2022-07-03T06:41:07;91499.59;;;21.87;60.56
70046;BME280;57385;41.832;23.494;2022-07-03T06:41:26;91510.22;;;21.96;60.21
70046;BME280;57385;41.832;23.494;2022-07-03T06:41:45;91515.16;;;21.98;60.76
70046;BME280;57385;41.832;23.494;2022-07-03T06:42:05;91503.47;;;21.90;60.43
70046;BME280;57385;41.832;23.494;2022-07-03T06:42:25;91502.69;;;21.89;60.54
70046;BME280;57385;41.832;23.494;2022-07-03T06:42:44;91491.75;;;21.87;60.42
70046;BME280;57385;41.832;23.494;2022-07-03T06:43:04;91515.44;;;21.96;60.48
70046;BME280;57385;41.832;23.494;2022-07-03T06:43:23;91509.34;;;22.01;59.77
70046;BME280;57385;41.832;23.494;2022-07-03T06:43:43;91498.97;;;21.96;59.82
70046;BME280;57385;41.832;23.494;2022-07-03T06:44:02;91514.09;;;21.99;59.83
70046;BME280;57385;41.832;23.494;2022-07-03T06:44:22;91515.34;;;22.01;59.62
70046;BME280;57385;41.832;23.494;2022-07-03T06:44:41;91502.88;;;21.98;60.23
70046;BME280;57385;41.832;23.494;2022-07-03T06:45:00;91507.53;;;22.01;61.09
70046;BME280;57385;41.832;23.494;2022-07-03T06:45:20;91512.75;;;22.01;60.68
70046;BME280;57385;41.832;23.494;2022-07-03T06:45:39;91502.38;;;21.96;60.56
70046;BME280;57385;41.832;23.494;2022-07-03T06:45:59;91511.41;;;22.04;60.54
70046;BME280;57385;41.832;23.494;2022-07-03T06:46:19;91491.44;;;21.94;60.56
70046;BME280;57385;41.832;23.494;2022-07-03T06:46:38;91487.31;;;21.88;60.21
70046;BME280;57385;41.832;23.494;2022-07-03T06:46:58;91504.69;;;21.98;60.09
70046;BME280;57385;41.832;23.494;2022-07-03T06:47:18;91517.88;;;22.11;60.16
70046;BME280;57385;41.832;23.494;2022-07-03T06:47:38;91495.25;;;22.02;60.17
70046;BME280;57385;41.832;23.494;2022-07-03T06:47:58;91493.00;;;21.95;59.94
70046;BME280;57385;41.832;23.494;2022-07-03T06:48:17;91492.69;;;21.97;60.13
70046;BME280;57385;41.832;23.494;2022-07-03T06:48:36;91506.16;;;22.09;60.30
70046;BME280;57385;41.832;23.494;2022-07-03T06:48:56;91496.78;;;22.03;60.66
70046;BME280;57385;41.832;23.494;2022-07-03T06:49:15;91504.09;;;22.06;60.26
70046;BME280;57385;41.832;23.494;2022-07-03T06:49:35;91485.56;;;22.02;60.30
70046;BME280;57385;41.832;23.494;2022-07-03T06:49:54;91486.41;;;21.98;60.09
70046;BME280;57385;41.832;23.494;2022-07-03T06:50:13;91491.06;;;22.01;60.25
70046;BME280;57385;41.832;23.494;2022-07-03T06:50:33;91502.22;;;22.11;60.22
70046;BME280;57385;41.832;23.494;2022-07-03T06:50:52;91503.56;;;22.09;60.04
70046;BME280;57385;41.832;23.494;2022-07-03T06:51:12;91511.03;;;22.15;60.10
70046;BME280;57385;41.832;23.494;2022-07-03T06:51:31;91498.03;;;22.10;60.09
70046;BME280;57385;41.832;23.494;2022-07-03T06:51:51;91497.75;;;22.12;59.85
70046;BME280;57385;41.832;23.494;2022-07-03T06:52:10;91492.03;;;22.10;59.75
70046;BME280;57385;41.832;23.494;2022-07-03T06:52:29;91515.16;;;22.22;60.36
70046;BME280;57385;41.832;23.494;2022-07-03T06:52:49;91509.69;;;22.18;60.40
70046;BME280;57385;41.832;23.494;2022-07-03T06:53:08;91513.81;;;22.24;60.47
70046;BME280;57385;41.832;23.494;2022-07-03T06:53:28;91510.69;;;22.22;60.74
70046;BME280;57385;41.832;23.494;2022-07-03T06:53:47;91493.03;;;22.14;61.10
70046;BME280;57385;41.832;23.494;2022-07-03T06:54:07;91513.44;;;22.31;61.08
70046;BME280;57385;41.832;23.494;2022-07-03T06:54:26;91511.91;;;22.30;62.55
70046;BME280;57385;41.832;23.494;2022-07-03T06:54:46;91496.09;;;22.21;62.02
70046;BME280;57385;41.832;23.494;2022-07-03T06:55:06;91509.00;;;22.31;61.67
70046;BME280;57385;41.832;23.494;2022-07-03T06:55:25;91512.09;;;22.33;62.35
70046;BME280;57385;41.832;23.494;2022-07-03T06:55:45;91494.78;;;22.18;62.42
70046;BME280;57385;41.832;23.494;2022-07-03T06:56:04;91480.94;;;22.18;62.49
70046;BME280;57385;41.832;23.494;2022-07-03T06:56:23;91490.28;;;22.24;62.33
70046;BME280;57385;41.832;23.494;2022-07-03T06:56:43;91511.28;;;22.38;63.05
70046;BME280;57385;41.832;23.494;2022-07-03T06:57:02;91501.09;;;22.36;62.76
70046;BME280;57385;41.832;23.494;2022-07-03T06:57:22;91506.34;;;22.36;63.51
70046;BME280;57385;41.832;23.494;2022-07-03T06:57:41;91505.56;;;22.36;63.26
70046;BME280;57385;41.832;23.494;2022-07-03T06:58:01;91494.09;;;22.32;62.70
70046;BME280;57385;41.832;23.494;2022-07-03T06:58:21;91504.41;;;22.42;62.64
70046;BME280;57385;41.832;23.494;2022-07-03T06:58:40;91498.22;;;22.38;62.92
70046;BME280;57385;41.832;23.494;2022-07-03T06:59:00;91497.44;;;22.37;63.53
70046;BME280;57385;41.832;23.494;2022-07-03T06:59:19;91500.75;;;22.43;63.53
70046;BME280;57385;41.832;23.494;2022-07-03T06:59:39;91495.50;;;22.43;63.31
70046;BME280;57385;41.832;23.494;2022-07-03T06:59:59;91491.34;;;22.42;62.62
70046;BME280;57385;41.832;23.494;2022-07-03T07:00:18;91486.97;;;22.37;62.71
70046;BME280;57385;41.832;23.494;2022-07-03T07:00:37;91492.69;;;22.39;62.81
70046;BME280;57385;41.832;23.494;2022-07-03T07:00:57;91479.44;;;22.36;62.58
70046;BME280;57385;41.832;23.494;2022-07-03T07:01:16;91484.38;;;22.37;62.78
70046;BME280;57385;41.832;23.494;2022-07-03T07:01:36;91477.31;;;22.38;62.69
70046;BME280;57385;41.832;23.494;2022-07-03T07:01:55;91494.66;;;22.47;61.40
70046;BME280;57385;41.832;23.494;2022-07-03T07:02:15;91495.38;;;22.53;60.63
70046;BME280;57385;41.832;23.494;2022-07-03T07:02:34;91482.94;;;22.45;59.94
70046;BME280;57385;41.832;23.494;2022-07-03T07:02:53;91500.03;;;22.56;60.42
70046;BME280;57385;41.832;23.494;2022-07-03T07:03:13;91497.72;;;22.55;60.36
70046;BME280;57385;41.832;23.494;2022-07-03T07:03:32;91500.03;;;22.56;61.00
70046;BME280;57385;41.832;23.494;2022-07-03T07:03:52;91496.84;;;22.59;59.44
70046;BME280;57385;41.832;23.494;2022-07-03T07:04:11;91494.88;;;22.51;58.60
70046;BME280;57385;41.832;23.494;2022-07-03T07:04:31;91498.13;;;22.62;59.36
70046;BME280;57385;41.832;23.494;2022-07-03T07:04:50;91509.09;;;22.64;58.87
70046;BME280;57385;41.832;23.494;2022-07-03T07:05:10;91511.13;;;22.67;59.42
70046;BME280;57385;41.832;23.494;2022-07-03T07:05:30;91503.09;;;22.63;58.31
70046;BME280;57385;41.832;23.494;2022-07-03T07:05:49;91493.69;;;22.62;58.81
70046;BME280;57385;41.832;23.494;2022-07-03T07:06:08;91506.09;;;22.70;58.22
70046;BME280;57385;41.832;23.494;2022-07-03T07:06:28;91508.22;;;22.68;58.20
70046;BME280;57385;41.832;23.494;2022-07-03T07:06:48;91498.53;;;22.69;58.52
70046;BME280;57385;41.832;23.494;2022-07-03T07:07:08;91499.13;;;22.66;59.11
70046;BME280;57385;41.832;23.494;2022-07-03T07:07:27;91497.28;;;22.66;58.86
70046;BME280;57385;41.832;23.494;2022-07-03T07:07:46;91507.38;;;22.73;57.91
70046;BME280;57385;41.832;23.494;2022-07-03T07:08:06;91501.16;;;22.69;58.29
70046;BME280;57385;41.832;23.494;2022-07-03T07:08:25;91481.66;;;22.61;58.03
70046;BME280;57385;41.832;23.494;2022-07-03T07:08:45;91495.94;;;22.69;57.95
70046;BME280;57385;41.832;23.494;2022-07-03T07:09:04;91503.13;;;22.77;58.00
70046;BME280;57385;41.832;23.494;2022-07-03T07:09:24;91487.50;;;22.72;58.11
70046;BME280;57385;41.832;23.494;2022-07-03T07:09:43;91490.13;;;22.72;57.96
70046;BME280;57385;41.832;23.494;2022-07-03T07:10:03;91489.53;;;22.75;58.14
70046;BME280;57385;41.832;23.494;2022-07-03T07:10:23;91490.63;;;22.74;58.22
70046;BME280;57385;41.832;23.494;2022-07-03T07:10:42;91490.63;;;22.74;57.85
70046;BME280;57385;41.832;23.494;2022-07-03T07:11:02;91490.63;;;22.74;58.13
70046;BME280;57385;41.832;23.494;2022-07-03T07:11:21;91478.59;;;22.73;58.09
70046;BME280;57385;41.832;23.494;2022-07-03T07:11:41;91487.16;;;22.79;58.13
70046;BME280;57385;41.832;23.494;2022-07-03T07:12:00;91491.81;;;22.82;57.20
70046;BME280;57385;41.832;23.494;2022-07-03T07:12:20;91488.16;;;22.83;56.68
70046;BME280;57385;41.832;23.494;2022-07-03T07:12:39;91487.09;;;22.84;57.58
70046;BME280;57385;41.832;23.494;2022-07-03T07:12:58;91480.59;;;22.81;57.99
70046;BME280;57385;41.832;23.494;2022-07-03T07:13:18;91493.59;;;22.86;56.04
70046;BME280;57385;41.832;23.494;2022-07-03T07:13:37;91496.69;;;22.88;55.56
70046;BME280;57385;41.832;23.494;2022-07-03T07:13:57;91496.63;;;22.93;55.97
70046;BME280;57385;41.832;23.494;2022-07-03T07:14:16;91500.81;;;22.94;55.19
70046;BME280;57385;41.832;23.494;2022-07-03T07:14:36;91495.84;;;22.93;55.92
70046;BME280;57385;41.832;23.494;2022-07-03T07:14:55;91481.78;;;22.89;55.70
70046;BME280;57385;41.832;23.494;2022-07-03T07:15:14;91494.22;;;22.97;56.35
70046;BME280;57385;41.832;23.494;2022-07-03T07:15:34;91479.97;;;22.89;55.48
70046;BME280;57385;41.832;23.494;2022-07-03T07:15:53;91492.38;;;22.97;55.76
70046;BME280;57385;41.832;23.494;2022-07-03T07:16:13;91489.56;;;22.94;56.20
70046;BME280;57385;41.832;23.494;2022-07-03T07:16:32;91487.16;;;22.97;55.84
70046;BME280;57385;41.832;23.494;2022-07-03T07:16:52;91475.78;;;22.88;56.61
70046;BME280;57385;41.832;23.494;2022-07-03T07:17:11;91487.91;;;22.98;56.13
70046;BME280;57385;41.832;23.494;2022-07-03T07:17:31;91485.31;;;22.98;56.53
70046;BME280;57385;41.832;23.494;2022-07-03T07:17:50;91490.19;;;23.04;56.58
70046;BME280;57385;41.832;23.494;2022-07-03T07:18:10;91495.91;;;23.07;56.57
70046;BME280;57385;41.832;23.494;2022-07-03T07:18:29;91492.88;;;22.99;56.35
70046;BME280;57385;41.832;23.494;2022-07-03T07:18:48;91481.34;;;23.00;56.17
70046;BME280;57385;41.832;23.494;2022-07-03T07:19:08;91486.50;;;23.05;55.58
70046;BME280;57385;41.832;23.494;2022-07-03T07:19:27;91485.72;;;23.05;54.90
70046;BME280;57385;41.832;23.494;2022-07-03T07:19:47;91490.09;;;23.10;55.83
70046;BME280;57385;41.832;23.494;2022-07-03T07:20:07;91478.94;;;23.04;55.62
70046;BME280;57385;41.832;23.494;2022-07-03T07:20:26;91492.31;;;23.16;55.40
70046;BME280;57385;41.832;23.494;2022-07-03T07:20:46;91478.56;;;23.11;54.92
70046;BME280;57385;41.832;23.494;2022-07-03T07:21:05;91501.84;;;23.26;55.20
70046;BME280;57385;41.832;23.494;2022-07-03T07:21:25;91481.84;;;23.16;54.66
70046;BME280;57385;41.832;23.494;2022-07-03T07:21:44;91481.31;;;23.19;53.74
70046;BME280;57385;41.832;23.494;2022-07-03T07:22:04;91488.28;;;23.24;53.86
70046;BME280;57385;41.832;23.494;2022-07-03T07:22:23;91488.75;;;23.26;52.38
70046;BME280;57385;41.832;23.494;2022-07-03T07:22:43;91498.59;;;23.34;52.38
70046;BME280;57385;41.832;23.494;2022-07-03T07:23:02;91495.66;;;23.35;52.15
70046;BME280;57385;41.832;23.494;2022-07-03T07:23:22;91490.16;;;23.37;53.29
70046;BME280;57385;41.832;23.494;2022-07-03T07:23:41;91485.41;;;23.39;53.32
70046;BME280;57385;41.832;23.494;2022-07-03T07:24:03;91496.84;;;23.43;53.92
70046;BME280;57385;41.832;23.494;2022-07-03T07:24:23;91484.81;;;23.42;54.12
70046;BME280;57385;41.832;23.494;2022-07-03T07:24:42;91484.81;;;23.42;53.80
70046;BME280;57385;41.832;23.494;2022-07-03T07:25:02;91482.13;;;23.47;53.63
70046;BME280;57385;41.832;23.494;2022-07-03T07:25:21;91476.00;;;23.52;52.66
70046;BME280;57385;41.832;23.494;2022-07-03T07:25:41;91479.97;;;23.49;53.04
70046;BME280;57385;41.832;23.494;2022-07-03T07:26:00;91480.94;;;23.53;53.24
70046;BME280;57385;41.832;23.494;2022-07-03T07:26:20;91479.88;;;23.54;52.52
70046;BME280;57385;41.832;23.494;2022-07-03T07:26:39;91481.13;;;23.57;51.19
70046;BME280;57385;41.832;23.494;2022-07-03T07:27:01;91474.66;;;23.54;49.34
70046;BME280;57385;41.832;23.494;2022-07-03T07:27:20;91475.13;;;23.56;49.41
70046;BME280;57385;41.832;23.494;2022-07-03T07:27:40;91477.69;;;23.61;50.37
70046;BME280;57385;41.832;23.494;2022-07-03T07:27:59;91484.38;;;23.68;50.72
70046;BME280;57385;41.832;23.494;2022-07-03T07:28:19;91485.56;;;23.75;49.41
70046;BME280;57385;41.832;23.494;2022-07-03T07:28:38;91476.75;;;23.71;50.12
70046;BME280;57385;41.832;23.494;2022-07-03T07:28:58;91484.09;;;23.83;49.95
70046;BME280;57385;41.832;23.494;2022-07-03T07:29:17;91478.38;;;23.81;50.71
70046;BME280;57385;41.832;23.494;2022-07-03T07:29:37;91479.63;;;23.83;50.77
70046;BME280;57385;41.832;23.494;2022-07-03T07:29:56;91488.94;;;23.89;50.55
70046;BME280;57385;41.832;23.494;2022-07-03T07:30:15;91479.06;;;23.86;51.47
70046;BME280;57385;41.832;23.494;2022-07-03T07:30:35;91476.34;;;23.91;51.21
70046;BME280;57385;41.832;23.494;2022-07-03T07:30:54;91496.22;;;24.06;51.43
70046;BME280;57385;41.832;23.494;2022-07-03T07:31:14;91484.28;;;24.00;51.43
70046;BME280;57385;41.832;23.494;2022-07-03T07:31:33;91490.38;;;24.09;51.50
70046;BME280;57385;41.832;23.494;2022-07-03T07:31:52;91468.34;;;23.97;51.13
70046;BME280;57385;41.832;23.494;2022-07-03T07:32:12;91481.75;;;24.09;51.32
70046;BME280;57385;41.832;23.494;2022-07-03T07:32:32;91470.59;;;24.03;50.62
70046;BME280;57385;41.832;23.494;2022-07-03T07:32:51;91481.66;;;24.14;50.80
70046;BME280;57385;41.832;23.494;2022-07-03T07:33:10;91482.91;;;24.16;50.61
70046;BME280;57385;41.832;23.494;2022-07-03T07:33:30;91483.97;;;24.15;49.96
70046;BME280;57385;41.832;23.494;2022-07-03T07:33:49;91492.19;;;24.22;50.96
70046;BME280;57385;41.832;23.494;2022-07-03T07:34:09;91487.94;;;24.27;50.06
70046;BME280;57385;41.832;23.494;2022-07-03T07:34:28;91485.88;;;24.23;50.72
70046;BME280;57385;41.832;23.494;2022-07-03T07:34:50;91475.69;;;24.22;50.55
70046;BME280;57385;41.832;23.494;2022-07-03T07:35:10;91498.22;;;24.37;49.52
70046;BME280;57385;41.832;23.494;2022-07-03T07:35:29;91485.22;;;24.32;49.93
70046;BME280;57385;41.832;23.494;2022-07-03T07:35:49;91487.75;;;24.37;49.63
70046;BME280;57385;41.832;23.494;2022-07-03T07:36:08;91486.19;;;24.36;49.58
70046;BME280;57385;41.832;23.494;2022-07-03T07:36:28;91475.53;;;24.32;49.08
70046;BME280;57385;41.832;23.494;2022-07-03T07:36:47;91474.16;;;24.35;48.31
70046;BME280;57385;41.832;23.494;2022-07-03T07:37:07;91483.66;;;24.44;48.68
70046;BME280;57385;41.832;23.494;2022-07-03T07:37:26;91465.81;;;24.33;48.78
70046;BME280;57385;41.832;23.494;2022-07-03T07:37:46;91490.03;;;24.52;48.20
70046;BME280;57385;41.832;23.494;2022-07-03T07:38:05;91482.28;;;24.47;48.13
70046;BME280;57385;41.832;23.494;2022-07-03T07:38:24;91491.47;;;24.58;47.36
70046;BME280;57385;41.832;23.494;2022-07-03T07:38:44;91479.84;;;24.50;47.52
70046;BME280;57385;41.832;23.494;2022-07-03T07:39:03;91493.97;;;24.63;48.24
70046;BME280;57385;41.832;23.494;2022-07-03T07:39:23;91482.38;;;24.56;48.20
70046;BME280;57385;41.832;23.494;2022-07-03T07:39:42;91486.88;;;24.64;48.57
70046;BME280;57385;41.832;23.494;2022-07-03T07:40:03;91481.47;;;24.60;48.78
70046;BME280;57385;41.832;23.494;2022-07-03T07:40:22;91482.06;;;24.57;49.62
70046;BME280;57385;41.832;23.494;2022-07-03T07:40:42;91491.13;;;24.73;48.78
70046;BME280;57385;41.832;23.494;2022-07-03T07:41:02;91474.69;;;24.59;48.96
70046;BME280;57385;41.832;23.494;2022-07-03T07:41:21;91475.91;;;24.62;48.91
70046;BME280;57385;41.832;23.494;2022-07-03T07:41:40;91484.63;;;24.71;48.96
70046;BME280;57385;41.832;23.494;2022-07-03T07:42:00;91488.22;;;24.75;48.58
70046;BME280;57385;41.832;23.494;2022-07-03T07:42:19;91478.50;;;24.75;49.35
70046;BME280;57385;41.832;23.494;2022-07-03T07:42:39;91492.75;;;24.83;49.50
70046;BME280;57385;41.832;23.494;2022-07-03T07:42:58;91485.75;;;24.78;49.60
70046;BME280;57385;41.832;23.494;2022-07-03T07:43:18;91496.34;;;24.87;49.62
70046;BME280;57385;41.832;23.494;2022-07-03T07:43:37;91481.66;;;24.86;48.84
70046;BME280;57385;41.832;23.494;2022-07-03T07:43:56;91475.75;;;24.80;48.84
70046;BME280;57385;41.832;23.494;2022-07-03T07:44:16;91484.75;;;24.88;48.88
70046;BME280;57385;41.832;23.494;2022-07-03T07:44:35;91492.31;;;25.03;49.10
70046;BME280;57385;41.832;23.494;2022-07-03T07:44:55;91479.13;;;24.95;49.23
70046;BME280;57385;41.832;23.494;2022-07-03T07:45:14;91480.06;;;24.99;49.61
70046;BME280;57385;41.832;23.494;2022-07-03T07:45:34;91497.44;;;25.08;49.74
70046;BME280;57385;41.832;23.494;2022-07-03T07:45:53;91483.66;;;25.03;49.30
70046;BME280;57385;41.832;23.494;2022-07-03T07:46:13;91479.19;;;25.03;49.69
70046;BME280;57385;41.832;23.494;2022-07-03T07:46:32;91475.31;;;25.01;49.36
70046;BME280;57385;41.832;23.494;2022-07-03T07:46:52;91484.03;;;25.10;49.25
70046;BME280;57385;41.832;23.494;2022-07-03T07:47:11;91484.19;;;25.14;48.67
70046;BME280;57385;41.832;23.494;2022-07-03T07:47:30;91488.66;;;25.13;49.00
70046;BME280;57385;41.832;23.494;2022-07-03T07:47:50;91476.31;;;25.14;49.41
70046;BME280;57385;41.832;23.494;2022-07-03T07:48:09;91484.34;;;25.17;49.81
70046;BME280;57385;41.832;23.494;2022-07-03T07:48:29;91471.66;;;25.10;49.10
70046;BME280;57385;41.832;23.494;2022-07-03T07:48:48;91480.97;;;25.17;49.15
70046;BME280;57385;41.832;23.494;2022-07-03T07:49:08;91474.28;;;25.10;48.57
70046;BME280;57385;41.832;23.494;2022-07-03T07:49:27;91470.91;;;25.10;48.09
70046;BME280;57385;41.832;23.494;2022-07-03T07:49:47;91461.75;;;25.07;47.72
70046;BME280;57385;41.832;23.494;2022-07-03T07:50:07;91486.06;;;25.22;46.85
70046;BME280;57385;41.832;23.494;2022-07-03T07:50:26;91476.94;;;25.19;46.98
70046;BME280;57385;41.832;23.494;2022-07-03T07:50:46;91466.59;;;25.14;48.01
70046;BME280;57385;41.832;23.494;2022-07-03T07:51:05;91476.38;;;25.22;47.81
70046;BME280;57385;41.832;23.494;2022-07-03T07:51:25;91489.06;;;25.29;47.94
70046;BME280;57385;41.832;23.494;2022-07-03T07:51:44;91486.91;;;25.31;47.49
70046;BME280;57385;41.832;23.494;2022-07-03T07:52:04;91461.97;;;25.20;47.60
70046;BME280;57385;41.832;23.494;2022-07-03T07:52:23;91493.88;;;25.35;48.01
70046;BME280;57385;41.832;23.494;2022-07-03T07:52:43;91475.63;;;25.30;47.73
70046;BME280;57385;41.832;23.494;2022-07-03T07:53:02;91475.63;;;25.30;48.87
70046;BME280;57385;41.832;23.494;2022-07-03T07:53:22;91473.00;;;25.30;48.31
70046;BME280;57385;41.832;23.494;2022-07-03T07:53:41;91483.09;;;25.37;48.97
70046;BME280;57385;41.832;23.494;2022-07-03T07:54:01;91474.84;;;25.30;48.64
70046;BME280;57385;41.832;23.494;2022-07-03T07:54:23;91468.84;;;25.29;47.68
70046;BME280;57385;41.832;23.494;2022-07-03T07:54:43;91482.31;;;25.36;48.17
70046;BME280;57385;41.832;23.494;2022-07-03T07:55:03;91484.50;;;25.43;48.59
70046;BME280;57385;41.832;23.494;2022-07-03T07:55:23;91468.22;;;25.32;49.10
70046;BME280;57385;41.832;23.494;2022-07-03T07:55:42;91474.91;;;25.38;48.72
70046;BME280;57385;41.832;23.494;2022-07-03T07:56:03;91482.50;;;25.49;47.05
70046;BME280;57385;41.832;23.494;2022-07-03T07:56:23;91480.50;;;25.46;46.00
70046;BME280;57385;41.832;23.494;2022-07-03T07:56:43;91465.97;;;25.39;47.38
70046;BME280;57385;41.832;23.494;2022-07-03T07:57:02;91473.09;;;25.48;46.73
70046;BME280;57385;41.832;23.494;2022-07-03T07:57:22;91461.47;;;25.40;47.72
70046;BME280;57385;41.832;23.494;2022-07-03T07:57:41;91476.47;;;25.48;47.59
70046;BME280;57385;41.832;23.494;2022-07-03T07:58:01;91472.91;;;25.44;47.00
70046;BME280;57385;41.832;23.494;2022-07-03T07:58:20;91476.22;;;25.50;45.86
70046;BME280;57385;41.832;23.494;2022-07-03T07:58:40;91461.16;;;25.42;46.39
70046;BME280;57385;41.832;23.494;2022-07-03T07:58:59;91476.38;;;25.53;46.74
70046;BME280;57385;41.832;23.494;2022-07-03T07:59:19;91477.91;;;25.54;47.22
70046;BME280;57385;41.832;23.494;2022-07-03T07:59:38;91476.53;;;25.57;47.47
70046;BME280;57385;41.832;23.494;2022-07-03T07:59:57;91460.09;;;25.43;48.07
70046;BME280;57385;41.832;23.494;2022-07-03T08:00:18;91481.16;;;25.60;47.90
70046;BME280;57385;41.832;23.494;2022-07-03T08:00:38;91461.63;;;25.44;44.84
70046;BME280;57385;41.832;23.494;2022-07-03T08:00:57;91457.16;;;25.44;44.93
70046;BME280;57385;41.832;23.494;2022-07-03T08:01:18;91466.47;;;25.50;44.79
70046;BME280;57385;41.832;23.494;2022-07-03T08:01:37;91476.53;;;25.57;44.96
70046;BME280;57385;41.832;23.494;2022-07-03T08:01:57;91472.19;;;25.52;45.32
70046;BME280;57385;41.832;23.494;2022-07-03T08:02:16;91472.34;;;25.56;45.57
70046;BME280;57385;41.832;23.494;2022-07-03T08:02:36;91465.88;;;25.53;45.26
70046;BME280;57385;41.832;23.494;2022-07-03T08:02:56;91480.88;;;25.61;45.87
70046;BME280;57385;41.832;23.494;2022-07-03T08:03:15;91459.47;;;25.46;46.93
70046;BME280;57385;41.832;23.494;2022-07-03T08:03:34;91455.78;;;25.47;45.99
70046;BME280;57385;41.832;23.494;2022-07-03T08:03:54;91456.44;;;25.52;46.05
70046;BME280;57385;41.832;23.494;2022-07-03T08:04:13;91476.56;;;25.65;46.53
70046;BME280;57385;41.832;23.494;2022-07-03T08:04:33;91458.75;;;25.54;47.92
70046;BME280;57385;41.832;23.494;2022-07-03T08:04:52;91475.81;;;25.65;47.52
70046;BME280;57385;41.832;23.494;2022-07-03T08:05:12;91455.66;;;25.52;46.76
70046;BME280;57385;41.832;23.494;2022-07-03T08:05:31;91474.72;;;25.66;47.47
70046;BME280;57385;41.832;23.494;2022-07-03T08:05:51;91451.66;;;25.54;45.60
70046;BME280;57385;41.832;23.494;2022-07-03T08:06:10;91454.28;;;25.54;45.46
70046;BME280;57385;41.832;23.494;2022-07-03T08:06:30;91448.38;;;25.49;45.72
70046;BME280;57385;41.832;23.494;2022-07-03T08:06:50;91475.31;;;25.63;44.78
70046;BME280;57385;41.832;23.494;2022-07-03T08:07:09;91460.47;;;25.58;46.01
70046;BME280;57385;41.832;23.494;2022-07-03T08:07:29;91461.91;;;25.64;46.92
70046;BME280;57385;41.832;23.494;2022-07-03T08:07:48;91479.41;;;25.69;45.83
70046;BME280;57385;41.832;23.494;2022-07-03T08:08:16;91462.66;;;25.65;48.01
70046;BME280;57385;41.832;23.494;2022-07-03T08:08:35;91461.72;;;25.61;45.37
70046;BME280;57385;41.832;23.494;2022-07-03T08:08:55;91454.91;;;25.60;46.83
70046;BME280;57385;41.832;23.494;2022-07-03T08:09:14;91477.09;;;25.76;44.26